createdAt,value
2017-01-15T00:00:07.478Z,26.6
2017-01-15T00:01:07.505Z,26.6
2017-01-15T00:02:07.555Z,26.6
2017-01-15T00:03:07.608Z,26.6
2017-01-15T00:04:07.660Z,26.6
2017-01-15T00:05:07.814Z,26.6
2017-01-15T00:06:08.444Z,26.6
2017-01-15T00:07:06.788Z,26.6
2017-01-15T00:08:08.525Z,26.6
2017-01-15T00:09:08.077Z,26.6
2017-01-15T00:10:07.986Z,26.6
2017-01-15T00:11:06.936Z,26.6
2017-01-15T00:12:08.209Z,26.6
2017-01-15T00:13:07.100Z,26.6
2017-01-15T00:14:08.427Z,26.6
2017-01-15T00:15:09.058Z,26.6
2017-01-15T00:16:07.901Z,26.6
2017-01-15T00:17:07.258Z,26.6
2017-01-15T00:18:07.290Z,26.6
2017-01-15T00:19:08.507Z,26.6
2017-01-15T00:20:07.557Z,26.6
2017-01-15T00:21:08.499Z,26.6
2017-01-15T00:22:07.534Z,26.6
2017-01-15T00:23:08.573Z,26.6
2017-01-15T00:24:08.642Z,26.6
2017-01-15T00:25:07.620Z,26.6
2017-01-15T00:26:07.718Z,26.6
2017-01-15T00:27:09.381Z,26.6
2017-01-15T00:28:08.802Z,26.6
2017-01-15T00:29:08.756Z,26.6
2017-01-15T00:30:08.861Z,26.6
2017-01-15T00:31:07.773Z,26.6
2017-01-15T00:32:07.944Z,26.6
2017-01-15T00:33:07.991Z,26.6
2017-01-15T00:34:07.968Z,26.6
2017-01-15T00:35:09.918Z,26.6
2017-01-15T00:36:09.876Z,26.6
2017-01-15T00:37:09.132Z,26.5
2017-01-15T00:38:08.126Z,26.6
2017-01-15T00:39:08.170Z,26.5
2017-01-15T00:40:08.300Z,26.6
2017-01-15T00:41:08.359Z,26.5
2017-01-15T00:42:09.345Z,26.6
2017-01-15T00:43:08.459Z,26.6
2017-01-15T00:44:08.456Z,26.6
2017-01-15T00:45:08.597Z,26.6
2017-01-15T00:46:10.284Z,26.6
2017-01-15T00:47:09.731Z,26.6
2017-01-15T00:48:08.817Z,26.6
2017-01-15T00:49:08.886Z,26.6
2017-01-15T00:50:09.917Z,26.6
2017-01-15T00:51:09.963Z,26.6
2017-01-15T00:52:10.681Z,26.6
2017-01-15T00:53:10.085Z,26.6
2017-01-15T00:54:10.233Z,26.6
2017-01-15T00:55:09.151Z,26.6
2017-01-15T00:56:11.047Z,26.6
2017-01-15T00:57:09.421Z,26.6
2017-01-15T00:58:09.350Z,26.6
2017-01-15T00:59:09.512Z,26.6
2017-01-15T01:00:10.615Z,26.6
2017-01-15T01:01:09.600Z,26.6
2017-01-15T01:02:09.807Z,26.6
2017-01-15T01:03:11.046Z,26.6
2017-01-15T01:04:10.968Z,26.6
2017-01-15T01:05:10.992Z,26.6
2017-01-15T01:06:09.985Z,26.6
2017-01-15T01:07:10.615Z,26.6
2017-01-15T01:08:10.119Z,26.6
2017-01-15T01:09:11.189Z,26.6
2017-01-15T01:10:11.195Z,26.6
2017-01-15T01:11:11.381Z,26.6
2017-01-15T01:12:10.901Z,26.6
2017-01-15T01:13:10.432Z,26.6
2017-01-15T01:14:10.413Z,26.6
2017-01-15T01:15:11.513Z,26.6
2017-01-15T01:16:11.386Z,26.6
2017-01-15T01:17:11.657Z,26.6
2017-01-15T01:18:10.683Z,26.6
2017-01-15T01:19:11.699Z,26.6
2017-01-15T01:20:11.421Z,26.6
2017-01-15T01:21:10.653Z,26.6
2017-01-15T01:22:11.433Z,26.6
2017-01-15T01:23:10.831Z,26.5
2017-01-15T01:24:10.903Z,26.5
2017-01-15T01:25:10.934Z,26.6
2017-01-15T01:26:10.912Z,26.6
2017-01-15T01:27:10.926Z,26.6
2017-01-15T01:28:12.161Z,26.5
2017-01-15T01:29:12.186Z,26.6
2017-01-15T01:30:11.151Z,26.6
2017-01-15T01:31:12.148Z,26.6
2017-01-15T01:32:12.279Z,26.6
2017-01-15T01:33:12.244Z,26.6
2017-01-15T01:34:12.381Z,26.6
2017-01-15T01:35:11.256Z,26.6
2017-01-15T01:36:11.393Z,26.6
2017-01-15T01:37:12.420Z,26.6
2017-01-15T01:38:12.615Z,26.5
2017-01-15T01:39:12.706Z,26.6
2017-01-15T01:40:12.759Z,26.5
2017-01-15T01:41:12.738Z,26.6
2017-01-15T01:42:12.841Z,26.6
2017-01-15T01:43:11.776Z,26.6
2017-01-15T01:44:12.862Z,26.6
2017-01-15T01:45:13.063Z,26.6
2017-01-15T01:46:11.987Z,26.5
2017-01-15T01:47:13.109Z,26.5
2017-01-15T01:48:13.803Z,26.6
2017-01-15T01:49:13.251Z,26.6
2017-01-15T01:50:13.228Z,26.6
2017-01-15T01:51:13.204Z,26.6
2017-01-15T01:52:13.300Z,26.6
2017-01-15T01:53:13.342Z,26.6
2017-01-15T01:54:13.347Z,26.5
2017-01-15T01:55:12.368Z,26.6
2017-01-15T01:56:13.528Z,26.6
2017-01-15T01:57:13.696Z,26.6
2017-01-15T01:58:12.600Z,26.6
2017-01-15T01:59:13.691Z,26.6
2017-01-15T02:00:13.844Z,26.6
2017-01-15T02:01:13.860Z,26.6
2017-01-15T02:02:12.877Z,26.6
2017-01-15T02:03:13.003Z,26.6
2017-01-15T02:04:14.884Z,26.6
2017-01-15T02:05:13.149Z,26.6
2017-01-15T02:06:14.249Z,26.6
2017-01-15T02:07:14.301Z,26.6
2017-01-15T02:08:13.950Z,26.6
2017-01-15T02:09:14.451Z,26.6
2017-01-15T02:10:13.386Z,26.6
2017-01-15T02:11:13.316Z,26.6
2017-01-15T02:12:13.397Z,26.6
2017-01-15T02:13:13.542Z,26.6
2017-01-15T02:14:13.580Z,26.6
2017-01-15T02:15:13.660Z,26.6
2017-01-15T02:16:14.728Z,26.6
2017-01-15T02:17:13.725Z,26.6
2017-01-15T02:18:14.799Z,26.6
2017-01-15T02:19:13.715Z,26.6
2017-01-15T02:20:14.504Z,26.6
2017-01-15T02:21:14.398Z,26.6
2017-01-15T02:22:15.440Z,26.6
2017-01-15T02:23:14.876Z,26.6
2017-01-15T02:24:15.015Z,26.6
2017-01-15T02:25:14.047Z,26.6
2017-01-15T02:26:13.967Z,26.6
2017-01-15T02:27:15.111Z,26.6
2017-01-15T02:28:14.183Z,26.6
2017-01-15T02:29:14.231Z,26.6
2017-01-15T02:30:14.268Z,26.6
2017-01-15T02:31:14.186Z,26.6
2017-01-15T02:32:15.342Z,26.6
2017-01-15T02:33:14.427Z,26.6
2017-01-15T02:34:14.475Z,26.6
2017-01-15T02:35:15.639Z,26.6
2017-01-15T02:36:16.609Z,26.6
2017-01-15T02:37:14.609Z,26.6
2017-01-15T02:38:14.647Z,26.6
2017-01-15T02:39:15.794Z,26.6
2017-01-15T02:40:15.836Z,26.6
2017-01-15T02:41:15.833Z,26.6
2017-01-15T02:42:14.891Z,26.6
2017-01-15T02:43:14.743Z,26.6
2017-01-15T02:44:14.824Z,26.6
2017-01-15T02:45:15.966Z,26.6
2017-01-15T02:46:15.102Z,26.6
2017-01-15T02:47:15.091Z,26.6
2017-01-15T02:48:16.184Z,26.5
2017-01-15T02:49:16.091Z,26.5
2017-01-15T02:50:15.107Z,26.5
2017-01-15T02:51:16.191Z,26.6
2017-01-15T02:52:16.262Z,26.6
2017-01-15T02:53:15.231Z,26.6
2017-01-15T02:54:16.411Z,26.6
2017-01-15T02:55:16.366Z,26.6
2017-01-15T02:56:15.414Z,26.6
2017-01-15T02:57:16.534Z,26.6
2017-01-15T02:58:16.531Z,26.6
2017-01-15T02:59:15.518Z,26.6
2017-01-15T03:00:15.642Z,26.6
2017-01-15T03:01:16.882Z,26.6
2017-01-15T03:02:15.652Z,26.6
2017-01-15T03:03:15.645Z,26.6
2017-01-15T03:04:15.817Z,26.6
2017-01-15T03:05:16.875Z,26.6
2017-01-15T03:06:16.907Z,26.6
2017-01-15T03:07:16.984Z,26.6
2017-01-15T03:08:16.961Z,26.6
2017-01-15T03:09:15.916Z,26.6
2017-01-15T03:10:17.066Z,26.6
2017-01-15T03:11:17.159Z,26.6
2017-01-15T03:12:16.297Z,26.6
2017-01-15T03:13:16.153Z,26.6
2017-01-15T03:14:17.280Z,26.6
2017-01-15T03:15:17.369Z,26.6
2017-01-15T03:16:16.468Z,26.6
2017-01-15T03:17:17.602Z,26.6
2017-01-15T03:18:17.611Z,26.6
2017-01-15T03:19:16.698Z,26.6
2017-01-15T03:20:17.817Z,26.6
2017-01-15T03:21:16.903Z,26.6
2017-01-15T03:22:16.985Z,26.6
2017-01-15T03:23:17.078Z,26.6
2017-01-15T03:24:18.107Z,26.6
2017-01-15T03:25:17.202Z,26.6
2017-01-15T03:26:17.224Z,26.6
2017-01-15T03:27:18.384Z,26.6
2017-01-15T03:28:18.403Z,26.6
2017-01-15T03:29:17.410Z,26.6
2017-01-15T03:30:18.450Z,26.6
2017-01-15T03:31:17.433Z,26.6
2017-01-15T03:32:18.266Z,26.6
2017-01-15T03:33:17.485Z,26.6
2017-01-15T03:34:17.422Z,26.6
2017-01-15T03:35:17.469Z,26.6
2017-01-15T03:36:17.485Z,26.6
2017-01-15T03:37:18.639Z,26.6
2017-01-15T03:38:17.688Z,26.6
2017-01-15T03:39:17.891Z,26.6
2017-01-15T03:40:17.798Z,26.6
2017-01-15T03:41:18.936Z,26.6
2017-01-15T03:42:17.835Z,26.6
2017-01-15T03:43:17.893Z,26.6
2017-01-15T03:44:19.088Z,26.6
2017-01-15T03:45:17.977Z,26.6
2017-01-15T03:46:19.100Z,26.6
2017-01-15T03:47:19.182Z,26.6
2017-01-15T03:48:19.331Z,26.6
2017-01-15T03:49:18.329Z,26.6
2017-01-15T03:50:19.403Z,26.6
2017-01-15T03:51:19.498Z,26.6
2017-01-15T03:52:18.400Z,26.6
2017-01-15T03:53:19.384Z,26.6
2017-01-15T03:54:21.197Z,26.5
2017-01-15T03:55:18.462Z,26.5
2017-01-15T03:56:19.481Z,26.5
2017-01-15T03:57:20.643Z,26.6
2017-01-15T03:58:19.612Z,26.6
2017-01-15T03:59:19.730Z,26.6
2017-01-15T04:00:18.663Z,26.6
2017-01-15T04:01:19.675Z,26.6
2017-01-15T04:02:18.688Z,26.5
2017-01-15T04:03:19.811Z,26.6
2017-01-15T04:04:19.835Z,26.6
2017-01-15T04:05:18.769Z,26.6
2017-01-15T04:06:18.895Z,26.6
2017-01-15T04:07:19.988Z,26.6
2017-01-15T04:08:19.984Z,26.6
2017-01-15T04:09:19.516Z,26.6
2017-01-15T04:10:20.680Z,26.6
2017-01-15T04:11:19.043Z,26.6
2017-01-15T04:12:19.934Z,26.6
2017-01-15T04:13:20.215Z,26.6
2017-01-15T04:14:20.859Z,26.6
2017-01-15T04:15:19.359Z,26.6
2017-01-15T04:16:19.421Z,26.6
2017-01-15T04:17:19.365Z,26.6
2017-01-15T04:18:19.459Z,26.6
2017-01-15T04:19:19.570Z,26.6
2017-01-15T04:20:21.282Z,26.6
2017-01-15T04:21:19.601Z,26.6
2017-01-15T04:22:19.685Z,26.6
2017-01-15T04:23:19.808Z,26.6
2017-01-15T04:24:21.237Z,26.6
2017-01-15T04:25:20.940Z,26.6
2017-01-15T04:26:20.918Z,26.6
2017-01-15T04:27:21.046Z,26.6
2017-01-15T04:28:19.993Z,26.6
2017-01-15T04:29:21.064Z,26.6
2017-01-15T04:30:20.056Z,26.6
2017-01-15T04:31:20.227Z,26.6
2017-01-15T04:32:20.274Z,26.6
2017-01-15T04:33:21.421Z,26.6
2017-01-15T04:34:22.697Z,26.6
2017-01-15T04:35:21.491Z,26.6
2017-01-15T04:36:20.448Z,26.6
2017-01-15T04:37:20.459Z,26.6
2017-01-15T04:38:20.436Z,26.5
2017-01-15T04:39:21.598Z,26.6
2017-01-15T04:40:20.565Z,26.6
2017-01-15T04:41:21.643Z,26.6
2017-01-15T04:42:20.685Z,26.6
2017-01-15T04:43:21.736Z,26.5
2017-01-15T04:44:21.753Z,26.5
2017-01-15T04:45:21.839Z,26.6
2017-01-15T04:46:21.463Z,26.6
2017-01-15T04:47:21.894Z,26.5
2017-01-15T04:48:21.405Z,26.5
2017-01-15T04:49:20.975Z,26.5
2017-01-15T04:50:21.943Z,26.5
2017-01-15T04:51:20.975Z,26.5
2017-01-15T04:52:21.019Z,26.5
2017-01-15T04:53:21.128Z,26.5
2017-01-15T04:54:22.196Z,26.5
2017-01-15T04:55:21.193Z,26.5
2017-01-15T04:56:21.204Z,26.5
2017-01-15T04:57:21.211Z,26.5
2017-01-15T04:58:21.371Z,26.5
2017-01-15T04:59:22.382Z,26.5
2017-01-15T05:00:21.395Z,26.5
2017-01-15T05:01:21.464Z,26.5
2017-01-15T05:02:21.546Z,26.5
2017-01-15T05:03:23.303Z,26.5
2017-01-15T05:04:21.640Z,26.5
2017-01-15T05:05:21.571Z,26.5
2017-01-15T05:06:22.796Z,26.5
2017-01-15T05:07:22.858Z,26.5
2017-01-15T05:08:22.799Z,26.5
2017-01-15T05:09:21.750Z,26.5
2017-01-15T05:10:21.838Z,26.5
2017-01-15T05:11:22.879Z,26.5
2017-01-15T05:12:22.007Z,26.5
2017-01-15T05:13:22.010Z,26.5
2017-01-15T05:14:23.060Z,26.5
2017-01-15T05:15:23.071Z,26.5
2017-01-15T05:16:22.394Z,26.5
2017-01-15T05:17:22.143Z,26.5
2017-01-15T05:18:22.207Z,26.5
2017-01-15T05:19:22.206Z,26.6
2017-01-15T05:20:23.440Z,26.5
2017-01-15T05:21:24.841Z,26.5
2017-01-15T05:22:23.459Z,26.5
2017-01-15T05:23:22.509Z,26.5
2017-01-15T05:24:22.664Z,26.5
2017-01-15T05:25:23.944Z,26.5
2017-01-15T05:26:22.737Z,26.5
2017-01-15T05:27:23.855Z,26.5
2017-01-15T05:28:22.974Z,26.5
2017-01-15T05:29:23.993Z,26.5
2017-01-15T05:30:24.069Z,26.5
2017-01-15T05:31:23.078Z,26.5
2017-01-15T05:32:24.253Z,26.5
2017-01-15T05:33:24.273Z,26.5
2017-01-15T05:34:23.194Z,26.5
2017-01-15T05:35:23.144Z,26.5
2017-01-15T05:36:23.304Z,26.5
2017-01-15T05:37:23.239Z,26.5
2017-01-15T05:38:23.394Z,26.5
2017-01-15T05:39:23.486Z,26.5
2017-01-15T05:40:24.467Z,26.5
2017-01-15T05:41:23.522Z,26.5
2017-01-15T05:42:23.455Z,26.5
2017-01-15T05:43:23.467Z,26.5
2017-01-15T05:44:23.554Z,26.5
2017-01-15T05:45:23.534Z,26.5
2017-01-15T05:46:25.403Z,26.5
2017-01-15T05:47:23.675Z,26.5
2017-01-15T05:48:24.868Z,26.5
2017-01-15T05:49:24.783Z,26.5
2017-01-15T05:50:24.863Z,26.5
2017-01-15T05:51:24.463Z,26.5
2017-01-15T05:52:23.926Z,26.5
2017-01-15T05:53:25.073Z,26.5
2017-01-15T05:54:23.933Z,26.5
2017-01-15T05:55:25.157Z,26.5
2017-01-15T05:56:25.374Z,26.5
2017-01-15T05:57:25.167Z,26.5
2017-01-15T05:58:25.273Z,26.5
2017-01-15T05:59:24.321Z,26.5
2017-01-15T06:00:25.258Z,26.5
2017-01-15T06:01:25.383Z,26.5
2017-01-15T06:02:24.408Z,26.5
2017-01-15T06:03:24.429Z,26.5
2017-01-15T06:04:25.514Z,26.5
2017-01-15T06:05:24.490Z,26.5
2017-01-15T06:06:24.486Z,26.5
2017-01-15T06:07:25.718Z,26.5
2017-01-15T06:08:25.784Z,26.5
2017-01-15T06:09:25.761Z,26.5
2017-01-15T06:10:25.880Z,26.5
2017-01-15T06:11:25.865Z,26.5
2017-01-15T06:12:24.912Z,26.5
2017-01-15T06:13:24.957Z,26.5
2017-01-15T06:14:26.100Z,26.5
2017-01-15T06:15:26.154Z,26.5
2017-01-15T06:16:26.061Z,26.5
2017-01-15T06:17:25.179Z,26.5
2017-01-15T06:18:26.315Z,26.5
2017-01-15T06:19:25.347Z,26.5
2017-01-15T06:20:26.490Z,26.5
2017-01-15T06:21:26.540Z,26.5
2017-01-15T06:22:26.540Z,26.5
2017-01-15T06:23:26.560Z,26.5
2017-01-15T06:24:26.696Z,26.5
2017-01-15T06:25:25.734Z,26.5
2017-01-15T06:26:25.646Z,26.5
2017-01-15T06:27:26.707Z,26.5
2017-01-15T06:28:26.868Z,26.5
2017-01-15T06:29:25.722Z,26.5
2017-01-15T06:30:26.877Z,26.5
2017-01-15T06:31:25.946Z,26.5
2017-01-15T06:32:27.081Z,26.5
2017-01-15T06:33:27.139Z,26.5
2017-01-15T06:34:26.089Z,26.5
2017-01-15T06:35:27.135Z,26.5
2017-01-15T06:36:26.082Z,26.5
2017-01-15T06:37:26.251Z,26.5
2017-01-15T06:38:26.347Z,26.5
2017-01-15T06:39:26.329Z,26.5
2017-01-15T06:40:26.493Z,26.5
2017-01-15T06:41:27.526Z,26.5
2017-01-15T06:42:26.474Z,26.5
2017-01-15T06:43:26.503Z,26.5
2017-01-15T06:44:26.454Z,26.5
2017-01-15T06:45:28.326Z,26.5
2017-01-15T06:46:27.637Z,26.5
2017-01-15T06:47:26.605Z,26.5
2017-01-15T06:48:26.643Z,26.5
2017-01-15T06:49:27.862Z,26.5
2017-01-15T06:50:27.870Z,26.5
2017-01-15T06:51:26.910Z,26.5
2017-01-15T06:52:27.988Z,26.5
2017-01-15T06:53:26.820Z,26.5
2017-01-15T06:54:28.810Z,26.5
2017-01-15T06:55:28.066Z,26.5
2017-01-15T06:56:27.976Z,26.5
2017-01-15T06:57:28.010Z,26.5
2017-01-15T06:58:26.968Z,26.5
2017-01-15T06:59:27.058Z,26.5
2017-01-15T07:00:27.194Z,26.5
2017-01-15T07:01:27.174Z,26.5
2017-01-15T07:02:28.331Z,26.5
2017-01-15T07:03:28.345Z,26.5
2017-01-15T07:04:28.484Z,26.5
2017-01-15T07:05:27.468Z,26.5
2017-01-15T07:06:28.155Z,26.5
2017-01-15T07:07:27.584Z,26.5
2017-01-15T07:08:27.528Z,26.5
2017-01-15T07:09:28.721Z,26.5
2017-01-15T07:10:27.603Z,26.5
2017-01-15T07:11:27.651Z,26.5
2017-01-15T07:12:27.729Z,26.5
2017-01-15T07:13:28.430Z,26.5
2017-01-15T07:14:28.981Z,26.5
2017-01-15T07:15:27.987Z,26.5
2017-01-15T07:16:29.136Z,26.5
2017-01-15T07:17:29.775Z,26.5
2017-01-15T07:18:29.117Z,26.5
2017-01-15T07:19:29.217Z,26.5
2017-01-15T07:20:29.207Z,26.5
2017-01-15T07:21:29.383Z,26.5
2017-01-15T07:22:28.308Z,26.5
2017-01-15T07:23:28.468Z,26.5
2017-01-15T07:24:29.482Z,26.5
2017-01-15T07:25:28.392Z,26.5
2017-01-15T07:26:28.563Z,26.5
2017-01-15T07:27:28.487Z,26.5
2017-01-15T07:28:29.703Z,26.5
2017-01-15T07:29:28.706Z,26.5
2017-01-15T07:30:29.767Z,26.5
2017-01-15T07:31:28.764Z,26.5
2017-01-15T07:32:29.744Z,26.5
2017-01-15T07:33:29.596Z,26.5
2017-01-15T07:34:29.812Z,26.5
2017-01-15T07:35:29.550Z,26.5
2017-01-15T07:36:28.833Z,26.5
2017-01-15T07:37:29.066Z,26.5
2017-01-15T07:38:29.541Z,26.5
2017-01-15T07:39:30.092Z,26.5
2017-01-15T07:40:30.147Z,26.4
2017-01-15T07:41:29.184Z,26.4
2017-01-15T07:42:29.208Z,26.4
2017-01-15T07:43:29.305Z,26.4
2017-01-15T07:44:30.435Z,26.4
2017-01-15T07:45:30.070Z,26.4
2017-01-15T07:46:31.153Z,26.4
2017-01-15T07:47:31.742Z,26.4
2017-01-15T07:48:29.617Z,26.4
2017-01-15T07:49:29.620Z,26.4
2017-01-15T07:50:29.591Z,26.4
2017-01-15T07:51:29.589Z,26.4
2017-01-15T07:52:29.673Z,26.4
2017-01-15T07:53:30.794Z,26.4
2017-01-15T07:54:29.816Z,26.4
2017-01-15T07:55:31.082Z,26.4
2017-01-15T07:56:30.015Z,26.4
2017-01-15T07:57:31.564Z,26.4
2017-01-15T07:58:30.214Z,26.4
2017-01-15T07:59:30.054Z,26.4
2017-01-15T08:00:30.074Z,26.4
2017-01-15T08:01:31.348Z,26.4
2017-01-15T08:02:31.302Z,26.4
2017-01-15T08:03:31.288Z,26.4
2017-01-15T08:04:30.262Z,26.4
2017-01-15T08:05:31.592Z,26.4
2017-01-15T08:06:31.056Z,26.4
2017-01-15T08:07:30.738Z,26.4
2017-01-15T08:08:30.611Z,26.4
2017-01-15T08:09:30.624Z,26.4
2017-01-15T08:10:30.703Z,26.4
2017-01-15T08:11:30.789Z,26.4
2017-01-15T08:12:30.763Z,26.4
2017-01-15T08:13:30.657Z,26.4
2017-01-15T08:14:31.791Z,26.4
2017-01-15T08:15:31.932Z,26.4
2017-01-15T08:16:32.001Z,26.4
2017-01-15T08:17:31.031Z,26.4
2017-01-15T08:18:31.011Z,26.4
2017-01-15T08:19:31.081Z,26.4
2017-01-15T08:20:31.119Z,26.4
2017-01-15T08:21:32.269Z,26.4
2017-01-15T08:22:31.229Z,26.4
2017-01-15T08:23:32.410Z,26.4
2017-01-15T08:24:31.285Z,26.3
2017-01-15T08:25:31.311Z,26.3
2017-01-15T08:26:31.410Z,26.3
2017-01-15T08:27:31.410Z,26.3
2017-01-15T08:28:31.418Z,26.3
2017-01-15T08:29:32.506Z,26.3
2017-01-15T08:30:32.545Z,26.3
2017-01-15T08:31:31.581Z,26.3
2017-01-15T08:32:32.583Z,26.3
2017-01-15T08:33:32.643Z,26.3
2017-01-15T08:34:32.782Z,26.3
2017-01-15T08:35:32.794Z,26.3
2017-01-15T08:36:31.840Z,26.3
2017-01-15T08:37:33.652Z,26.3
2017-01-15T08:38:33.070Z,26.3
2017-01-15T08:39:31.922Z,26.2
2017-01-15T08:40:31.965Z,26.2
2017-01-15T08:41:33.019Z,26.2
2017-01-15T08:42:32.010Z,26.2
2017-01-15T08:43:33.322Z,26.2
2017-01-15T08:44:33.330Z,26.2
2017-01-15T08:45:32.346Z,26.2
2017-01-15T08:46:32.515Z,26.2
2017-01-15T08:47:33.236Z,26.1
2017-01-15T08:48:33.507Z,26.1
2017-01-15T08:49:32.587Z,26.1
2017-01-15T08:50:32.644Z,26.1
2017-01-15T08:51:34.270Z,26
2017-01-15T08:52:33.690Z,26
2017-01-15T08:53:32.679Z,26
2017-01-15T08:54:33.908Z,26
2017-01-15T08:55:33.878Z,26
2017-01-15T08:56:33.926Z,26
2017-01-15T08:57:33.003Z,26
2017-01-15T08:58:32.942Z,26
2017-01-15T08:59:33.048Z,26
2017-01-15T09:00:33.124Z,26
2017-01-15T09:01:34.692Z,26
2017-01-15T09:02:33.140Z,26
2017-01-15T09:03:34.355Z,25.9
2017-01-15T09:04:34.398Z,25.9
2017-01-15T09:05:33.342Z,25.9
2017-01-15T09:06:34.484Z,25.9
2017-01-15T09:07:34.548Z,25.9
2017-01-15T09:08:33.511Z,25.9
2017-01-15T09:09:34.834Z,25.9
2017-01-15T09:10:33.827Z,25.9
2017-01-15T09:11:34.874Z,25.8
2017-01-15T09:12:34.847Z,25.8
2017-01-15T09:13:34.997Z,25.8
2017-01-15T09:14:35.097Z,25.8
2017-01-15T09:15:35.194Z,25.8
2017-01-15T09:16:35.216Z,25.8
2017-01-15T09:17:34.737Z,25.8
2017-01-15T09:18:34.233Z,25.8
2017-01-15T09:19:34.346Z,25.8
2017-01-15T09:20:34.364Z,25.8
2017-01-15T09:21:34.412Z,25.8
2017-01-15T09:22:35.440Z,25.8
2017-01-15T09:23:34.558Z,25.7
2017-01-15T09:24:34.475Z,25.7
2017-01-15T09:25:34.539Z,25.7
2017-01-15T09:26:34.632Z,25.7
2017-01-15T09:27:35.843Z,25.6
2017-01-15T09:28:35.714Z,25.6
2017-01-15T09:29:35.796Z,25.6
2017-01-15T09:30:34.880Z,25.6
2017-01-15T09:31:34.925Z,25.5
2017-01-15T09:32:36.012Z,25.5
2017-01-15T09:33:35.956Z,25.5
2017-01-15T09:34:34.997Z,25.4
2017-01-15T09:35:36.349Z,25.4
2017-01-15T09:36:36.194Z,25.4
2017-01-15T09:37:35.644Z,25.4
2017-01-15T09:38:36.920Z,25.3
2017-01-15T09:39:36.202Z,25.3
2017-01-15T09:40:35.164Z,25.3
2017-01-15T09:41:35.262Z,25.3
2017-01-15T09:42:36.299Z,25.3
2017-01-15T09:43:35.248Z,25.3
2017-01-15T09:44:35.309Z,25.2
2017-01-15T09:45:36.512Z,25.2
2017-01-15T09:46:35.474Z,25.2
2017-01-15T09:47:36.199Z,25.2
2017-01-15T09:48:36.560Z,25.2
2017-01-15T09:49:35.517Z,25.2
2017-01-15T09:50:36.764Z,25.2
2017-01-15T09:51:35.587Z,25.2
2017-01-15T09:52:36.786Z,25.2
2017-01-15T09:53:35.839Z,25.1
2017-01-15T09:54:35.723Z,25.1
2017-01-15T09:55:36.820Z,25.1
2017-01-15T09:56:36.980Z,25.1
2017-01-15T09:57:36.985Z,25.1
2017-01-15T09:58:36.921Z,25.1
2017-01-15T09:59:37.058Z,25.1
2017-01-15T10:00:37.653Z,25.1
2017-01-15T10:01:36.200Z,25.1
2017-01-15T10:02:37.442Z,25.1
2017-01-15T10:03:36.206Z,25.1
2017-01-15T10:04:37.482Z,25.1
2017-01-15T10:05:37.401Z,25.1
2017-01-15T10:06:37.468Z,25.1
2017-01-15T10:07:36.461Z,25.1
2017-01-15T10:08:37.612Z,25.1
2017-01-15T10:09:36.686Z,25.1
2017-01-15T10:10:37.866Z,25.2
2017-01-15T10:11:37.821Z,25.1
2017-01-15T10:12:36.785Z,25.1
2017-01-15T10:13:37.956Z,25.1
2017-01-15T10:14:38.053Z,25.1
2017-01-15T10:15:36.860Z,25.1
2017-01-15T10:16:36.992Z,25.1
2017-01-15T10:17:37.087Z,25.1
2017-01-15T10:18:38.837Z,25.1
2017-01-15T10:19:38.112Z,25.1
2017-01-15T10:20:38.182Z,25.1
2017-01-15T10:21:38.948Z,25.1
2017-01-15T10:22:38.004Z,25.1
2017-01-15T10:23:37.574Z,25.1
2017-01-15T10:24:38.496Z,25.1
2017-01-15T10:25:37.407Z,25.1
2017-01-15T10:26:38.626Z,25.1
2017-01-15T10:27:37.615Z,25.1
2017-01-15T10:28:37.563Z,25.1
2017-01-15T10:29:38.660Z,25.1
2017-01-15T10:30:38.717Z,25.1
2017-01-15T10:31:38.868Z,25.1
2017-01-15T10:32:37.713Z,25.1
2017-01-15T10:33:38.972Z,25.1
2017-01-15T10:34:37.818Z,25.1
2017-01-15T10:35:38.525Z,25.1
2017-01-15T10:36:38.948Z,25.1
2017-01-15T10:37:39.004Z,25.1
2017-01-15T10:38:38.015Z,25.1
2017-01-15T10:39:38.107Z,25.1
2017-01-15T10:40:39.219Z,25.1
2017-01-15T10:41:38.315Z,25.2
2017-01-15T10:42:38.245Z,25.2
2017-01-15T10:43:39.301Z,25.2
2017-01-15T10:44:39.429Z,25.2
2017-01-15T10:45:38.382Z,25.2
2017-01-15T10:46:39.500Z,25.2
2017-01-15T10:47:39.233Z,25.3
2017-01-15T10:48:39.560Z,25.3
2017-01-15T10:49:40.443Z,25.3
2017-01-15T10:50:38.708Z,25.3
2017-01-15T10:51:38.694Z,25.3
2017-01-15T10:52:38.852Z,25.3
2017-01-15T10:53:38.773Z,25.3
2017-01-15T10:54:40.490Z,25.3
2017-01-15T10:55:39.972Z,25.3
2017-01-15T10:56:40.707Z,25.3
2017-01-15T10:57:39.916Z,25.3
2017-01-15T10:58:39.197Z,25.3
2017-01-15T10:59:40.098Z,25.3
2017-01-15T11:00:39.135Z,25.3
2017-01-15T11:01:40.249Z,25.3
2017-01-15T11:02:39.203Z,25.3
2017-01-15T11:03:39.246Z,25.2
2017-01-15T11:04:39.187Z,25.2
2017-01-15T11:05:39.435Z,25.2
2017-01-15T11:06:41.089Z,25.2
2017-01-15T11:07:40.540Z,25.2
2017-01-15T11:08:39.530Z,25.2
2017-01-15T11:09:40.682Z,25.2
2017-01-15T11:10:40.712Z,25.2
2017-01-15T11:11:39.634Z,25.2
2017-01-15T11:12:39.693Z,25.2
2017-01-15T11:13:40.871Z,25.1
2017-01-15T11:14:40.921Z,25
2017-01-15T11:15:39.747Z,24.9
2017-01-15T11:16:39.952Z,24.7
2017-01-15T11:17:41.649Z,24.5
2017-01-15T11:18:41.023Z,24.3
2017-01-15T11:19:41.112Z,24.1
2017-01-15T11:20:41.147Z,23.9
2017-01-15T11:21:41.116Z,23.8
2017-01-15T11:22:41.500Z,23.6
2017-01-15T11:23:40.249Z,23.4
2017-01-15T11:24:41.239Z,23.2
2017-01-15T11:25:40.347Z,23.1
2017-01-15T11:26:42.125Z,23
2017-01-15T11:27:41.442Z,22.8
2017-01-15T11:28:41.471Z,22.7
2017-01-15T11:29:40.498Z,22.5
2017-01-15T11:30:41.163Z,22.4
2017-01-15T11:31:40.541Z,22.2
2017-01-15T11:32:41.728Z,22.1
2017-01-15T11:33:41.834Z,22.1
2017-01-15T11:34:40.770Z,22.1
2017-01-15T11:35:40.706Z,22.1
2017-01-15T11:36:41.838Z,22.2
2017-01-15T11:37:40.786Z,22.2
2017-01-15T11:38:41.918Z,22.3
2017-01-15T11:39:42.155Z,22.4
2017-01-15T11:40:41.011Z,22.6
2017-01-15T11:41:41.092Z,22.8
2017-01-15T11:42:41.064Z,22.9
2017-01-15T11:43:42.167Z,23.1
2017-01-15T11:44:42.885Z,23.2
2017-01-15T11:45:43.018Z,23.4
2017-01-15T11:46:41.382Z,23.5
2017-01-15T11:47:41.273Z,23.6
2017-01-15T11:48:41.552Z,23.7
2017-01-15T11:49:42.120Z,23.8
2017-01-15T11:50:42.619Z,23.9
2017-01-15T11:51:42.508Z,23.9
2017-01-15T11:52:42.496Z,24
2017-01-15T11:53:42.747Z,24.1
2017-01-15T11:54:43.293Z,24.1
2017-01-15T11:55:43.264Z,24.2
2017-01-15T11:56:42.760Z,24.3
2017-01-15T11:57:42.657Z,24.3
2017-01-15T11:58:42.701Z,24.4
2017-01-15T11:59:41.740Z,24.4
2017-01-15T12:00:43.044Z,24.5
2017-01-15T12:01:41.898Z,24.5
2017-01-15T12:02:43.042Z,24.5
2017-01-15T12:03:43.068Z,24.6
2017-01-15T12:04:43.012Z,24.6
2017-01-15T12:05:43.302Z,24.7
2017-01-15T12:06:43.072Z,24.7
2017-01-15T12:07:43.337Z,24.7
2017-01-15T12:08:43.384Z,24.7
2017-01-15T12:09:43.306Z,24.8
2017-01-15T12:10:43.499Z,24.8
2017-01-15T12:11:43.516Z,24.8
2017-01-15T12:12:43.583Z,24.9
2017-01-15T12:13:43.368Z,24.9
2017-01-15T12:14:43.146Z,24.9
2017-01-15T12:15:42.558Z,24.9
2017-01-15T12:16:42.738Z,24.9
2017-01-15T12:17:42.725Z,25
2017-01-15T12:18:43.795Z,25
2017-01-15T12:19:43.874Z,25
2017-01-15T12:20:43.431Z,24.9
2017-01-15T12:21:43.853Z,24.9
2017-01-15T12:22:44.024Z,24.8
2017-01-15T12:23:44.716Z,24.7
2017-01-15T12:24:44.135Z,24.7
2017-01-15T12:25:44.088Z,24.6
2017-01-15T12:26:43.154Z,24.7
2017-01-15T12:27:44.745Z,24.7
2017-01-15T12:28:43.131Z,24.7
2017-01-15T12:29:43.070Z,24.7
2017-01-15T12:30:43.148Z,24.7
2017-01-15T12:31:43.320Z,24.7
2017-01-15T12:32:44.497Z,24.7
2017-01-15T12:33:43.255Z,24.7
2017-01-15T12:34:43.327Z,24.7
2017-01-15T12:35:43.388Z,24.7
2017-01-15T12:36:43.553Z,24.7
2017-01-15T12:37:43.600Z,24.7
2017-01-15T12:38:44.666Z,24.7
2017-01-15T12:39:43.872Z,24.7
2017-01-15T12:40:43.660Z,24.7
2017-01-15T12:41:44.810Z,24.8
2017-01-15T12:42:44.912Z,24.8
2017-01-15T12:43:43.865Z,24.8
2017-01-15T12:44:45.004Z,24.8
2017-01-15T12:45:45.098Z,24.8
2017-01-15T12:46:45.732Z,24.8
2017-01-15T12:47:44.197Z,24.8
2017-01-15T12:48:45.345Z,24.8
2017-01-15T12:49:45.523Z,24.8
2017-01-15T12:50:44.574Z,24.7
2017-01-15T12:51:44.485Z,24.7
2017-01-15T12:52:44.566Z,24.5
2017-01-15T12:53:45.868Z,24.3
2017-01-15T12:54:44.667Z,24
2017-01-15T12:55:46.041Z,23.8
2017-01-15T12:56:45.821Z,23.6
2017-01-15T12:57:45.909Z,23.3
2017-01-15T12:58:44.830Z,23.2
2017-01-15T12:59:46.008Z,23.2
2017-01-15T13:00:46.148Z,23.2
2017-01-15T13:01:45.200Z,23.3
2017-01-15T13:02:45.078Z,23.3
2017-01-15T13:03:45.262Z,23.4
2017-01-15T13:04:46.383Z,23.4
2017-01-15T13:05:45.917Z,23.4
2017-01-15T13:06:46.427Z,23.4
2017-01-15T13:07:46.491Z,23.4
2017-01-15T13:08:46.636Z,23.3
2017-01-15T13:09:45.666Z,23.3
2017-01-15T13:10:46.761Z,23.3
2017-01-15T13:11:45.873Z,23.3
2017-01-15T13:12:45.854Z,23.4
2017-01-15T13:13:45.984Z,23.5
2017-01-15T13:14:45.950Z,23.6
2017-01-15T13:15:46.134Z,23.6
2017-01-15T13:16:47.976Z,23.7
2017-01-15T13:17:46.233Z,23.8
2017-01-15T13:18:46.182Z,23.9
2017-01-15T13:19:46.367Z,23.9